createdAt,value
2024-04-10T00:00:47.157Z,198.89
2024-04-10T00:01:47.171Z,198.96
2024-04-10T00:02:47.118Z,198.98
2024-04-10T00:03:47.221Z,198.34
2024-04-10T00:04:47.397Z,197.73
2024-04-10T00:05:47.168Z,198.92
2024-04-10T00:06:47.133Z,199.46
2024-04-10T00:07:47.154Z,198.36
2024-04-10T00:08:47.139Z,198.14
2024-04-10T00:09:47.172Z,197.96
2024-04-10T00:10:47.360Z,199.31
2024-04-10T00:11:47.270Z,199.25
2024-04-10T00:12:47.243Z,200.00
2024-04-10T00:13:47.320Z,198.41
2024-04-10T00:14:47.279Z,198.57
2024-04-10T00:15:47.303Z,199.11
2024-04-10T00:16:47.383Z,198.50
2024-04-10T00:17:47.511Z,199.21
2024-04-10T00:18:47.502Z,198.96
2024-04-10T00:19:47.448Z,199.96
2024-04-10T00:20:47.437Z,199.65
2024-04-10T00:21:47.442Z,199.48
2024-04-10T00:22:48.060Z,199.71
2024-04-10T00:23:47.510Z,199.73
2024-04-10T00:24:47.518Z,198.21
2024-04-10T00:25:47.575Z,198.28
2024-04-10T00:26:47.558Z,198.46
2024-04-10T00:27:47.588Z,197.64
2024-04-10T00:28:47.735Z,198.83
2024-04-10T00:29:47.652Z,199.12
2024-04-10T00:30:47.670Z,198.44
2024-04-10T00:31:47.747Z,198.96
2024-04-10T00:32:47.806Z,199.15
2024-04-10T00:33:47.790Z,199.30
2024-04-10T00:34:47.798Z,197.86
2024-04-10T00:35:47.816Z,199.43
2024-04-10T00:36:47.802Z,199.38
2024-04-10T00:37:47.884Z,198.31
2024-04-10T00:38:47.850Z,199.20
2024-04-10T00:39:47.878Z,198.73
2024-04-10T00:40:47.936Z,199.63
2024-04-10T00:41:47.947Z,199.34
2024-04-10T00:42:47.948Z,199.66
2024-04-10T00:43:48.087Z,199.21
2024-04-10T00:44:47.986Z,198.72
2024-04-10T00:45:48.018Z,198.57
2024-04-10T00:46:48.100Z,197.80
2024-04-10T00:47:48.192Z,198.93
2024-04-10T00:48:48.344Z,198.63
2024-04-10T00:49:48.229Z,199.12
2024-04-10T00:50:48.160Z,198.86
2024-04-10T00:51:48.212Z,198.87
2024-04-10T00:52:48.224Z,199.52
2024-04-10T00:53:48.343Z,198.11
2024-04-10T00:54:48.267Z,199.40
2024-04-10T00:55:48.324Z,199.67
2024-04-10T00:56:48.315Z,198.91
2024-04-10T00:57:48.356Z,198.89
2024-04-10T00:58:48.388Z,198.88
2024-04-10T00:59:48.420Z,199.83
2024-04-10T01:00:48.481Z,198.57
2024-04-10T01:01:48.502Z,198.85
2024-04-10T01:02:48.502Z,199.08
2024-04-10T01:03:48.733Z,199.04
2024-04-10T01:04:48.664Z,199.54
2024-04-10T01:05:48.608Z,198.55
2024-04-10T01:06:48.606Z,199.42
2024-04-10T01:07:48.716Z,198.54
2024-04-10T01:08:48.675Z,198.45
2024-04-10T01:09:48.684Z,199.12
2024-04-10T01:10:48.847Z,198.95
2024-04-10T01:11:48.915Z,197.64
2024-04-10T01:12:48.755Z,199.44
2024-04-10T01:13:48.896Z,199.47
2024-04-10T01:14:48.798Z,199.43
2024-04-10T01:15:48.783Z,199.38
2024-04-10T01:16:48.943Z,199.14
2024-04-10T01:17:48.843Z,200.68
2024-04-10T01:18:48.810Z,199.26
2024-04-10T01:19:48.838Z,198.97
2024-04-10T01:20:48.808Z,198.32
2024-04-10T01:21:48.801Z,199.21
2024-04-10T01:22:48.834Z,198.83
2024-04-10T01:23:48.789Z,198.34
2024-04-10T01:24:48.786Z,198.77
2024-04-10T01:25:48.845Z,198.96
2024-04-10T01:26:48.783Z,198.41
2024-04-10T01:27:48.812Z,199.57
2024-04-10T01:28:48.903Z,197.61
2024-04-10T01:29:48.798Z,198.55
2024-04-10T01:30:48.809Z,198.45
2024-04-10T01:31:48.890Z,199.12
2024-04-10T01:32:48.938Z,198.46
2024-04-10T01:33:48.938Z,198.66
2024-04-10T01:34:48.846Z,197.60
2024-04-10T01:35:48.867Z,198.79
2024-04-10T01:36:48.932Z,198.56
2024-04-10T01:37:48.980Z,197.75
2024-04-10T01:38:48.949Z,199.10
2024-04-10T01:39:48.938Z,199.11
2024-04-10T01:40:49.016Z,199.15
2024-04-10T01:41:48.952Z,199.17
2024-04-10T01:42:48.955Z,199.28
2024-04-10T01:43:49.077Z,199.27
2024-04-10T01:44:48.973Z,199.17
2024-04-10T01:45:48.972Z,199.34
2024-04-10T01:46:49.009Z,199.82
2024-04-10T01:47:49.136Z,200.18
2024-04-10T01:48:49.134Z,199.75
2024-04-10T01:49:49.004Z,199.57
2024-04-10T01:50:48.993Z,199.89
2024-04-10T01:51:48.972Z,198.49
2024-04-10T01:52:48.999Z,197.99
2024-04-10T01:53:48.988Z,198.04
2024-04-10T01:54:48.987Z,198.09
2024-04-10T01:55:49.046Z,198.34
2024-04-10T01:56:48.987Z,199.10
2024-04-10T01:57:48.983Z,198.64
2024-04-10T01:58:49.074Z,199.38
2024-04-10T01:59:48.989Z,199.53
2024-04-10T02:00:49.064Z,198.15
2024-04-10T02:01:49.017Z,198.16
2024-04-10T02:02:49.102Z,199.02
2024-04-10T02:03:49.083Z,197.55
2024-04-10T02:04:49.067Z,197.37
2024-04-10T02:05:49.009Z,198.50
2024-04-10T02:06:49.004Z,198.60
2024-04-10T02:07:49.051Z,199.30
2024-04-10T02:08:49.014Z,200.00
2024-04-10T02:09:49.048Z,199.04
2024-04-10T02:10:49.213Z,198.20
2024-04-10T02:11:49.216Z,198.61
2024-04-10T02:12:49.150Z,198.19
2024-04-10T02:13:49.240Z,199.14
2024-04-10T02:14:49.244Z,199.42
2024-04-10T02:15:49.272Z,198.77
2024-04-10T02:16:49.450Z,199.11
2024-04-10T02:17:49.445Z,197.37
2024-04-10T02:18:49.398Z,198.32
2024-04-10T02:19:49.480Z,198.40
2024-04-10T02:20:49.452Z,198.37
2024-04-10T02:21:49.467Z,198.78
2024-04-10T02:22:49.555Z,197.54
2024-04-10T02:23:49.536Z,197.47
2024-04-10T02:24:49.574Z,197.76
2024-04-10T02:25:49.740Z,197.75
2024-04-10T02:26:49.670Z,198.39
2024-04-10T02:27:49.680Z,198.66
2024-04-10T02:28:49.828Z,199.34
2024-04-10T02:29:49.830Z,198.44
2024-04-10T02:30:49.814Z,198.76
2024-04-10T02:31:49.864Z,197.87
2024-04-10T02:32:49.967Z,199.61
2024-04-10T02:33:49.997Z,197.97
2024-04-10T02:34:49.994Z,199.05
2024-04-10T02:35:49.999Z,197.35
2024-04-10T02:36:49.998Z,196.98
2024-04-10T02:37:50.067Z,197.82
2024-04-10T02:38:50.098Z,198.63
2024-04-10T02:39:50.145Z,199.30
2024-04-10T02:40:50.203Z,200.00
2024-04-10T02:41:50.217Z,197.23
2024-04-10T02:42:50.259Z,198.15
2024-04-10T02:43:50.357Z,198.22
2024-04-10T02:44:50.333Z,198.10
2024-04-10T02:45:50.383Z,199.10
2024-04-10T02:46:50.437Z,198.77
2024-04-10T02:47:50.618Z,198.47
2024-04-10T02:48:50.499Z,198.50
2024-04-10T02:49:50.560Z,198.99
2024-04-10T02:50:50.556Z,196.97
2024-04-10T02:51:50.593Z,198.45
2024-04-10T02:52:50.652Z,197.95
2024-04-10T02:53:50.673Z,198.43
2024-04-10T02:54:50.734Z,199.73
2024-04-10T02:55:50.779Z,197.47
2024-04-10T02:56:50.775Z,199.08
2024-04-10T02:57:50.833Z,198.43
2024-04-10T02:58:50.904Z,197.84
2024-04-10T02:59:50.907Z,198.52
2024-04-10T03:00:51.015Z,198.50
2024-04-10T03:01:51.026Z,198.33
2024-04-10T03:02:51.104Z,198.38
2024-04-10T03:03:51.047Z,198.57
2024-04-10T03:04:51.072Z,198.61
2024-04-10T03:05:51.014Z,198.35
2024-04-10T03:06:51.013Z,198.77
2024-04-10T03:07:51.024Z,198.24
2024-04-10T03:08:51.011Z,198.18
2024-04-10T03:09:51.022Z,198.90
2024-04-10T03:10:51.029Z,198.08
2024-04-10T03:11:51.207Z,198.64
2024-04-10T03:12:51.762Z,197.90
2024-04-10T03:13:51.034Z,197.70
2024-04-10T03:14:51.018Z,198.32
2024-04-10T03:15:51.064Z,197.51
2024-04-10T03:16:51.147Z,197.58
2024-04-10T03:17:51.137Z,197.84
2024-04-10T03:18:51.205Z,198.03
2024-04-10T03:19:51.129Z,198.32
2024-04-10T03:20:51.084Z,197.95
2024-04-10T03:21:51.076Z,198.43
2024-04-10T03:22:52.791Z,198.90
2024-04-10T03:23:51.116Z,199.39
2024-04-10T03:24:51.083Z,197.74
2024-04-10T03:25:51.108Z,198.45
2024-04-10T03:26:51.087Z,197.92
2024-04-10T03:27:51.084Z,198.62
2024-04-10T03:28:51.159Z,198.54
2024-04-10T03:29:51.137Z,197.05
2024-04-10T03:30:51.187Z,197.41
2024-04-10T03:31:51.263Z,198.34
2024-04-10T03:32:51.452Z,198.36
2024-04-10T03:33:51.313Z,198.51
2024-04-10T03:34:51.263Z,198.48
2024-04-10T03:35:51.248Z,198.43
2024-04-10T03:36:51.264Z,198.81
2024-04-10T03:37:51.259Z,197.20
2024-04-10T03:38:51.266Z,198.72
2024-04-10T03:39:51.251Z,198.98
2024-04-10T03:40:51.300Z,198.34
2024-04-10T03:41:51.244Z,197.71
2024-04-10T03:42:51.252Z,198.82
2024-04-10T03:43:51.354Z,198.15
2024-04-10T03:44:51.316Z,198.36
2024-04-10T03:45:51.369Z,197.99
2024-04-10T03:46:51.606Z,198.14
2024-04-10T03:47:51.650Z,197.57
2024-04-10T03:48:51.636Z,197.31
2024-04-10T03:49:51.598Z,198.08
2024-04-10T03:50:51.623Z,196.87
2024-04-10T03:51:51.658Z,197.78
2024-04-10T03:52:51.767Z,198.57
2024-04-10T03:53:51.764Z,198.99
2024-04-10T03:54:51.807Z,198.34
2024-04-10T03:55:51.882Z,197.39
2024-04-10T03:56:51.898Z,199.16
2024-04-10T03:57:51.952Z,197.93
2024-04-10T03:58:52.090Z,197.13
2024-04-10T03:59:52.110Z,198.31
2024-04-10T04:00:52.137Z,197.32
2024-04-10T04:01:52.173Z,198.77
2024-04-10T04:02:52.445Z,197.14
2024-04-10T04:03:52.305Z,197.83
2024-04-10T04:04:52.324Z,197.81
2024-04-10T04:05:52.360Z,197.23
2024-04-10T04:06:52.407Z,198.30
2024-04-10T04:07:52.496Z,197.77
2024-04-10T04:08:52.538Z,197.29
2024-04-10T04:09:52.564Z,197.48
2024-04-10T04:10:52.791Z,198.41
2024-04-10T04:11:52.799Z,198.53
2024-04-10T04:12:52.748Z,198.74
2024-04-10T04:13:52.862Z,197.69
2024-04-10T04:14:52.841Z,198.30
2024-04-10T04:15:52.959Z,197.62
2024-04-10T04:16:53.017Z,197.98
2024-04-10T04:17:53.122Z,198.54
2024-04-10T04:18:53.081Z,196.82
2024-04-10T04:19:53.151Z,198.20
2024-04-10T04:20:53.233Z,197.69
2024-04-10T04:21:53.246Z,197.96
2024-04-10T04:22:53.334Z,197.73
2024-04-10T04:23:53.368Z,198.40
2024-04-10T04:24:53.407Z,198.26
2024-04-10T04:25:53.486Z,197.58
2024-04-10T04:26:53.529Z,197.68
2024-04-10T04:27:53.561Z,197.74
2024-04-10T04:28:53.595Z,197.88
2024-04-10T04:29:53.545Z,198.12
2024-04-10T04:30:53.553Z,198.32
2024-04-10T04:31:53.555Z,198.92
2024-04-10T04:32:53.694Z,198.81
2024-04-10T04:33:53.626Z,198.39
2024-04-10T04:34:53.613Z,197.79
2024-04-10T04:35:53.565Z,197.30
2024-04-10T04:36:53.581Z,198.57
2024-04-10T04:37:53.647Z,198.14
2024-04-10T04:39:00.917Z,50.00
2024-04-10T04:40:00.932Z,50.00
2024-04-10T04:41:00.949Z,50.00
2024-04-10T04:42:00.925Z,50.00
2024-04-10T04:43:00.921Z,50.00
2024-04-10T04:44:02.465Z,52.00
2024-04-10T04:45:00.913Z,52.22
2024-04-10T04:46:00.927Z,52.89
2024-04-10T04:47:01.150Z,52.10
2024-04-10T04:48:00.965Z,50.63
2024-04-10T04:49:00.905Z,51.08
2024-04-10T04:50:01.054Z,50.76
2024-04-10T04:51:01.018Z,51.52
2024-04-10T04:52:01.070Z,51.37
2024-04-10T04:53:01.190Z,51.48
2024-04-10T04:54:01.202Z,53.01
2024-04-10T04:55:01.264Z,52.32
2024-04-10T04:56:01.341Z,50.41
2024-04-10T04:57:01.363Z,50.59
2024-04-10T04:58:01.414Z,50.00
2024-04-10T04:59:01.574Z,51.98
2024-04-10T05:00:01.535Z,52.20
2024-04-10T05:01:01.639Z,51.18
2024-04-10T05:02:01.729Z,51.56
2024-04-10T05:03:01.985Z,52.21
2024-04-10T05:04:01.896Z,52.10
2024-04-10T05:05:01.943Z,50.36
2024-04-10T05:06:01.896Z,52.09
2024-04-10T05:07:01.944Z,51.51
2024-04-10T05:08:02.068Z,52.77
2024-04-10T05:09:02.072Z,51.89
2024-04-10T05:10:02.162Z,51.62
2024-04-10T05:11:02.275Z,51.81
2024-04-10T05:12:04.466Z,51.30
2024-04-10T05:13:02.253Z,52.48
2024-04-10T05:14:02.295Z,51.85
2024-04-10T05:15:02.283Z,51.91
2024-04-10T05:16:02.340Z,52.13
2024-04-10T05:17:02.337Z,52.87
2024-04-10T05:18:02.314Z,51.99
2024-04-10T05:19:02.268Z,52.04
2024-04-10T05:20:02.392Z,52.45
2024-04-10T05:21:02.287Z,52.14
2024-04-10T05:22:02.289Z,52.64
2024-04-10T05:23:02.352Z,53.74
2024-04-10T05:24:02.288Z,52.55
2024-04-10T05:25:02.282Z,52.61
2024-04-10T05:26:02.349Z,52.65
2024-04-10T05:27:02.290Z,52.65
2024-04-10T05:28:02.295Z,52.77
2024-04-10T05:29:02.360Z,51.88
2024-04-10T05:30:02.328Z,51.14
2024-04-10T05:31:02.339Z,51.92
2024-04-10T05:32:02.358Z,52.26
2024-04-10T05:33:02.441Z,52.30
2024-04-10T05:34:02.491Z,52.37
2024-04-10T05:35:02.330Z,52.39
2024-04-10T05:36:02.320Z,52.33
2024-04-10T05:37:02.341Z,52.31
2024-04-10T05:38:02.349Z,51.22
2024-04-10T05:39:02.319Z,46.54
2024-04-10T05:40:02.326Z,39.73
2024-04-10T05:41:02.402Z,35.06
2024-04-10T05:42:02.326Z,51.71
2024-04-10T05:43:02.315Z,50.37
2024-04-10T05:44:02.388Z,50.32
2024-04-10T05:45:02.385Z,50.99
2024-04-10T05:46:02.438Z,50.05
2024-04-10T05:47:02.545Z,46.73
2024-04-10T05:48:02.568Z,47.36
2024-04-10T05:49:02.553Z,47.64
2024-04-10T05:50:02.482Z,47.55
2024-04-10T05:51:02.427Z,45.21
2024-04-10T05:52:02.442Z,50.78
2024-04-10T05:53:04.313Z,50.11
2024-04-10T05:54:02.511Z,51.46
2024-04-10T05:55:02.415Z,52.22
2024-04-10T05:56:02.447Z,52.40
2024-04-10T05:57:02.433Z,54.84
2024-04-10T05:58:02.471Z,54.36
2024-04-10T05:59:02.555Z,56.50
2024-04-10T06:00:02.671Z,58.16
2024-04-10T06:01:02.680Z,57.15
2024-04-10T06:02:02.732Z,56.61
2024-04-10T06:03:02.749Z,57.54
2024-04-10T06:04:02.769Z,59.99
2024-04-10T06:05:02.840Z,60.57
2024-04-10T06:06:02.763Z,59.82
2024-04-10T06:07:02.780Z,61.71
2024-04-10T06:08:02.844Z,63.85
2024-04-10T06:09:02.838Z,64.03
2024-04-10T06:10:02.960Z,63.73
2024-04-10T06:11:02.960Z,66.31
2024-04-10T06:12:03.002Z,66.39
2024-04-10T06:13:02.915Z,66.65
2024-04-10T06:14:02.961Z,67.72
2024-04-10T06:15:02.893Z,68.96
2024-04-10T06:16:02.939Z,72.30
2024-04-10T06:17:02.904Z,73.97
2024-04-10T06:18:02.947Z,73.78
2024-04-10T06:19:02.908Z,71.97
2024-04-10T06:20:02.973Z,73.17
2024-04-10T06:21:02.905Z,73.88
2024-04-10T06:22:02.915Z,74.11
2024-04-10T06:23:02.946Z,74.02
2024-04-10T06:24:02.908Z,73.97
2024-04-10T06:25:02.898Z,74.80
2024-04-10T06:26:02.983Z,75.18
2024-04-10T06:27:02.906Z,75.64
2024-04-10T06:28:02.925Z,75.18
2024-04-10T06:29:02.957Z,75.05
2024-04-10T06:30:02.906Z,74.73
2024-04-10T06:31:02.922Z,75.41
2024-04-10T06:32:02.920Z,75.62
2024-04-10T06:33:03.012Z,73.87
2024-04-10T06:34:03.018Z,73.78
2024-04-10T06:35:02.954Z,73.00
2024-04-10T06:36:02.910Z,71.59
2024-04-10T06:37:02.930Z,71.10
2024-04-10T06:38:02.966Z,71.45
2024-04-10T06:39:02.923Z,71.48
2024-04-10T06:40:02.988Z,71.17
2024-04-10T06:41:03.024Z,69.40
2024-04-10T06:42:02.954Z,65.78
2024-04-10T06:43:02.947Z,65.40
2024-04-10T06:44:03.008Z,61.45
2024-04-10T06:45:02.950Z,60.41
2024-04-10T06:46:03.011Z,57.93
2024-04-10T06:47:03.160Z,55.17
2024-04-10T06:48:03.081Z,56.07
2024-04-10T06:49:03.061Z,56.41
2024-04-10T06:50:03.001Z,57.38
2024-04-10T06:51:02.965Z,56.89
2024-04-10T06:52:02.974Z,58.14
2024-04-10T06:53:02.989Z,58.03
2024-04-10T06:54:03.029Z,58.17
2024-04-10T06:55:03.019Z,59.17
2024-04-10T06:56:03.018Z,58.91
2024-04-10T06:57:02.957Z,57.29
2024-04-10T06:58:02.965Z,55.42
2024-04-10T06:59:02.976Z,55.22
2024-04-10T07:00:02.979Z,53.75
2024-04-10T07:01:03.028Z,53.40
2024-04-10T07:02:03.050Z,52.94
2024-04-10T07:03:02.976Z,52.29
2024-04-10T07:04:03.008Z,50.46
2024-04-10T07:05:03.077Z,50.00
2024-04-10T07:06:03.025Z,51.00
2024-04-10T07:07:03.027Z,50.53
2024-04-10T07:08:03.051Z,50.00
2024-04-10T07:09:03.077Z,50.00
2024-04-10T07:10:03.114Z,50.01
2024-04-10T07:11:03.243Z,50.00
2024-04-10T07:12:03.337Z,50.00
2024-04-10T07:13:03.158Z,50.48
2024-04-10T07:14:03.342Z,50.00
2024-04-10T07:15:03.231Z,50.81
2024-04-10T07:16:03.280Z,50.03
2024-04-10T07:17:03.314Z,50.12
2024-04-10T07:18:03.333Z,50.28
2024-04-10T07:19:03.345Z,50.00
2024-04-10T07:20:03.440Z,50.00
2024-04-10T07:21:03.371Z,50.09
2024-04-10T07:22:05.616Z,51.39
2024-04-10T07:23:03.428Z,50.98
2024-04-10T07:24:03.407Z,52.50
2024-04-10T07:25:03.759Z,52.89
2024-04-10T07:26:03.479Z,52.97
2024-04-10T07:27:03.472Z,53.57
2024-04-10T07:28:03.411Z,54.76
2024-04-10T07:29:03.432Z,54.97
2024-04-10T07:30:03.427Z,57.58
2024-04-10T07:31:03.439Z,61.85
2024-04-10T07:32:03.520Z,63.58
2024-04-10T07:33:03.582Z,64.60
2024-04-10T07:34:03.626Z,64.67
2024-04-10T07:35:03.619Z,64.73
2024-04-10T07:36:03.535Z,61.83
2024-04-10T07:37:03.461Z,60.49
2024-04-10T07:38:03.479Z,60.09
2024-04-10T07:39:03.442Z,62.49
2024-04-10T07:40:03.446Z,60.05
2024-04-10T07:41:03.468Z,60.88
2024-04-10T07:42:03.448Z,58.42
2024-04-10T07:43:03.455Z,58.40
2024-04-10T07:44:03.488Z,61.90
2024-04-10T07:45:03.454Z,62.44
2024-04-10T07:46:03.462Z,55.13
2024-04-10T07:47:03.618Z,49.74
2024-04-10T07:48:03.590Z,50.00
2024-04-10T07:49:03.614Z,49.99
2024-04-10T07:50:03.576Z,50.00
2024-04-10T07:51:03.464Z,50.41
2024-04-10T07:52:03.469Z,50.00
2024-04-10T07:53:03.540Z,50.37
2024-04-10T07:54:03.486Z,50.59
2024-04-10T07:55:03.483Z,51.42
2024-04-10T07:56:03.519Z,51.92
2024-04-10T07:57:03.533Z,53.78
2024-04-10T07:58:03.613Z,54.31
2024-04-10T07:59:03.682Z,55.62
2024-04-10T08:00:03.702Z,56.66
2024-04-10T08:01:03.792Z,58.19
2024-04-10T08:02:03.871Z,60.84
2024-04-10T08:03:03.974Z,64.16
2024-04-10T08:04:04.119Z,64.70
2024-04-10T08:05:04.061Z,64.45
2024-04-10T08:06:04.002Z,66.09
2024-04-10T08:07:04.073Z,67.25
2024-04-10T08:08:04.151Z,68.26
2024-04-10T08:09:04.182Z,70.73
2024-04-10T08:10:04.229Z,71.12
2024-04-10T08:11:04.553Z,71.15
2024-04-10T08:12:04.373Z,71.45
2024-04-10T08:13:04.252Z,71.31
2024-04-10T08:14:04.310Z,71.99
2024-04-10T08:15:04.259Z,74.04
2024-04-10T08:16:04.290Z,74.92
2024-04-10T08:17:04.275Z,76.77
2024-04-10T08:18:04.273Z,75.13
2024-04-10T08:19:04.244Z,75.54
2024-04-10T08:20:04.244Z,73.71
2024-04-10T08:21:04.231Z,70.67
2024-04-10T08:22:04.286Z,69.46
2024-04-10T08:23:04.409Z,68.86
2024-04-10T08:24:04.426Z,66.54
2024-04-10T08:25:04.499Z,66.85
2024-04-10T08:26:04.547Z,64.35
2024-04-10T08:27:04.604Z,63.74
2024-04-10T08:28:04.596Z,61.56
2024-04-10T08:29:04.802Z,62.66
2024-04-10T08:30:04.614Z,60.58
2024-04-10T08:31:04.603Z,59.63
2024-04-10T08:32:04.633Z,61.04
2024-04-10T08:33:04.778Z,60.73
2024-04-10T08:34:04.770Z,61.07
2024-04-10T08:35:04.711Z,63.28
2024-04-10T08:36:04.662Z,68.01
2024-04-10T08:37:04.752Z,67.26
2024-04-10T08:38:04.787Z,69.78
2024-04-10T08:39:04.788Z,69.81
2024-04-10T08:40:04.889Z,70.02
2024-04-10T08:41:04.827Z,70.00
2024-04-10T08:42:04.779Z,70.53
2024-04-10T08:43:04.824Z,66.49
2024-04-10T08:44:04.818Z,64.01
2024-04-10T08:45:04.821Z,63.45
2024-04-10T08:46:04.792Z,60.50
2024-04-10T08:47:04.947Z,58.96
2024-04-10T08:48:05.054Z,58.11
2024-04-10T08:49:05.060Z,56.26
2024-04-10T08:50:05.097Z,55.19
2024-04-10T08:51:05.134Z,54.69
2024-04-10T08:52:05.356Z,54.71
2024-04-10T08:53:05.284Z,53.68
2024-04-10T08:54:05.424Z,54.95
2024-04-10T08:55:05.549Z,55.68
2024-04-10T08:56:10.272Z,56.79
2024-04-10T08:57:06.488Z,56.96
2024-04-10T08:58:05.500Z,57.65
2024-04-10T08:59:05.504Z,60.06
2024-04-10T09:00:05.487Z,63.25
2024-04-10T09:01:05.633Z,68.17
2024-04-10T09:02:05.542Z,72.58
2024-04-10T09:03:05.525Z,76.46
2024-04-10T09:04:05.640Z,80.35
2024-04-10T09:05:05.637Z,81.12
2024-04-10T09:06:05.567Z,84.16
2024-04-10T09:07:05.722Z,90.23
2024-04-10T09:08:05.554Z,94.65
2024-04-10T09:09:05.598Z,103.62
2024-04-10T09:10:05.624Z,111.09
2024-04-10T09:11:05.728Z,116.24
2024-04-10T09:12:05.694Z,123.41
2024-04-10T09:13:07.452Z,128.99
2024-04-10T09:14:05.831Z,133.57
2024-04-10T09:15:05.773Z,138.21
2024-04-10T09:16:05.800Z,143.41
2024-04-10T09:17:05.999Z,148.37
2024-04-10T09:18:05.950Z,148.96
2024-04-10T09:19:05.891Z,151.83
2024-04-10T09:20:05.887Z,156.16
2024-04-10T09:21:05.925Z,159.51
2024-04-10T09:22:06.296Z,163.31
2024-04-10T09:23:05.969Z,164.32
2024-04-10T09:24:06.056Z,165.32
2024-04-10T09:25:06.062Z,168.34
2024-04-10T09:26:06.041Z,172.29
2024-04-10T09:27:06.084Z,171.42
2024-04-10T09:28:06.071Z,172.23
2024-04-10T09:29:06.089Z,174.86
2024-04-10T09:30:06.149Z,175.55
2024-04-10T09:31:06.115Z,176.94
2024-04-10T09:32:07.095Z,175.76
2024-04-10T09:33:06.316Z,174.45
2024-04-10T09:34:06.303Z,175.88
2024-04-10T09:35:06.167Z,175.82
2024-04-10T09:36:06.172Z,176.23
2024-04-10T09:37:06.135Z,174.02
2024-04-10T09:38:06.129Z,174.56
2024-04-10T09:39:06.183Z,175.15
2024-04-10T09:40:06.130Z,178.26
2024-04-10T09:41:06.133Z,176.81
2024-04-10T09:42:06.157Z,177.59
2024-04-10T09:43:06.147Z,179.01
2024-04-10T09:44:06.139Z,181.05
2024-04-10T09:45:06.222Z,179.67
2024-04-10T09:46:06.191Z,180.25
2024-04-10T09:47:06.313Z,179.95
2024-04-10T09:48:06.243Z,179.46
2024-04-10T09:49:06.260Z,177.70
2024-04-10T09:50:06.151Z,175.17
2024-04-10T09:51:06.431Z,171.46
2024-04-10T09:52:06.169Z,167.28
2024-04-10T09:53:06.149Z,162.15
2024-04-10T09:54:06.216Z,158.45
2024-04-10T09:55:06.184Z,152.15
2024-04-10T09:56:06.205Z,146.96
2024-04-10T09:57:06.171Z,141.39
2024-04-10T09:58:06.227Z,134.40
2024-04-10T09:59:06.203Z,128.19
2024-04-10T10:00:06.385Z,122.57
2024-04-10T10:01:06.235Z,115.33
2024-04-10T10:02:06.210Z,111.65
2024-04-10T10:03:06.279Z,107.41
2024-04-10T10:04:06.344Z,103.50
2024-04-10T10:05:06.173Z,100.28
2024-04-10T10:06:06.348Z,98.20
2024-04-10T10:07:06.192Z,96.62
2024-04-10T10:08:06.225Z,96.20
2024-04-10T10:09:06.334Z,92.69
2024-04-10T10:10:06.311Z,89.28
2024-04-10T10:11:08.515Z,87.90
2024-04-10T10:12:06.487Z,87.25
2024-04-10T10:13:06.352Z,83.18
2024-04-10T10:14:06.360Z,83.14
2024-04-10T10:15:06.426Z,81.61
2024-04-10T10:16:06.594Z,78.85
2024-04-10T10:17:06.387Z,76.53
2024-04-10T10:18:08.452Z,74.33
2024-04-10T10:19:06.568Z,71.53
2024-04-10T10:20:06.369Z,70.75
2024-04-10T10:21:06.529Z,69.14
2024-04-10T10:22:09.366Z,67.33
2024-04-10T10:23:08.489Z,67.33
2024-04-10T10:24:06.487Z,65.64
2024-04-10T10:25:06.389Z,65.31
2024-04-10T10:26:06.503Z,62.48
2024-04-10T10:27:06.476Z,62.90
2024-04-10T10:28:06.383Z,59.33
2024-04-10T10:29:09.566Z,59.13
2024-04-10T10:30:06.532Z,57.47
2024-04-10T10:31:06.385Z,56.37
2024-04-10T10:32:06.427Z,54.28
2024-04-10T10:33:06.660Z,53.52
2024-04-10T10:34:06.663Z,50.79
2024-04-10T10:35:08.786Z,50.48
2024-04-10T10:36:06.707Z,50.21
2024-04-10T10:37:06.427Z,50.92
2024-04-10T10:38:07.769Z,50.00
2024-04-10T10:39:06.462Z,52.81
2024-04-10T10:40:06.419Z,51.18
2024-04-10T10:41:07.257Z,52.61
2024-04-10T10:42:06.496Z,52.34
2024-04-10T10:43:06.525Z,53.13
2024-04-10T10:44:06.430Z,52.85
2024-04-10T10:45:06.447Z,53.65
2024-04-10T10:46:06.452Z,55.67
2024-04-10T10:47:07.937Z,58.81
2024-04-10T10:48:06.840Z,65.69
2024-04-10T10:49:06.462Z,69.76
2024-04-10T10:50:06.446Z,72.08
2024-04-10T10:51:09.162Z,74.31
2024-04-10T10:52:06.435Z,74.41
2024-04-10T10:53:09.314Z,75.40
2024-04-10T10:54:06.487Z,74.63
2024-04-10T10:55:06.473Z,76.01
2024-04-10T10:56:06.503Z,79.02
2024-04-10T10:57:06.549Z,84.13
2024-04-10T10:58:06.453Z,94.30
2024-04-10T10:59:08.896Z,75.07
2024-04-10T11:00:06.563Z,75.16
2024-04-10T11:01:06.504Z,78.35
2024-04-10T11:02:06.489Z,84.85
2024-04-10T11:03:16.306Z,94.11
2024-04-10T11:04:07.780Z,75.48
2024-04-10T11:05:07.498Z,79.69
2024-04-10T11:06:06.802Z,87.27
2024-04-10T11:07:06.657Z,98.95
2024-04-10T11:08:06.669Z,113.85
2024-04-10T11:09:06.738Z,118.01
2024-04-10T11:10:06.773Z,119.47
2024-04-10T11:11:09.019Z,120.37
2024-04-10T11:12:06.902Z,120.42
2024-04-10T11:13:06.797Z,120.53
2024-04-10T11:14:06.795Z,120.42
2024-04-10T11:15:06.990Z,120.69
2024-04-10T11:16:06.921Z,120.52
2024-04-10T11:17:08.572Z,120.83
2024-04-10T11:18:06.881Z,121.48
2024-04-10T11:19:06.822Z,121.38
2024-04-10T11:20:06.816Z,118.34
2024-04-10T11:21:06.852Z,115.08
2024-04-10T11:22:06.831Z,114.60
2024-04-10T11:23:08.212Z,114.02
2024-04-10T11:24:06.905Z,113.93
2024-04-10T11:25:06.843Z,111.92
2024-04-10T11:26:06.840Z,112.78
2024-04-10T11:27:06.897Z,112.13
2024-04-10T11:28:06.850Z,110.78
2024-04-10T11:29:08.824Z,109.42
2024-04-10T11:30:07.210Z,109.58
2024-04-10T11:31:07.148Z,109.60
2024-04-10T11:32:07.189Z,110.25
2024-04-10T11:33:07.399Z,108.67
2024-04-10T11:34:07.450Z,110.22
2024-04-10T11:35:07.296Z,110.13
2024-04-10T11:36:07.571Z,111.99
2024-04-10T11:37:07.435Z,113.42
2024-04-10T11:38:07.446Z,113.76
2024-04-10T11:39:07.528Z,112.89
2024-04-10T11:40:07.580Z,114.93
2024-04-10T11:41:08.726Z,113.57
2024-04-10T11:42:07.617Z,111.07
2024-04-10T11:43:07.688Z,112.39
2024-04-10T11:44:07.716Z,111.88
2024-04-10T11:45:07.806Z,110.62
2024-04-10T11:46:07.821Z,107.55
2024-04-10T11:47:07.948Z,109.75
2024-04-10T11:48:10.400Z,109.10
2024-04-10T11:49:07.956Z,109.23
2024-04-10T11:50:07.845Z,107.78
2024-04-10T11:51:07.907Z,105.67
2024-04-10T11:52:07.866Z,103.49
2024-04-10T11:53:07.851Z,100.25
2024-04-10T11:54:07.886Z,97.41
2024-04-10T11:55:07.984Z,91.28
2024-04-10T11:56:07.892Z,87.49
2024-04-10T11:57:07.917Z,86.30
2024-04-10T11:58:10.314Z,83.48
2024-04-10T11:59:07.853Z,81.06
2024-04-10T12:00:07.942Z,80.27
2024-04-10T12:01:07.970Z,79.00
2024-04-10T12:02:07.905Z,76.56
2024-04-10T12:03:08.092Z,73.51
2024-04-10T12:04:08.085Z,73.69
2024-04-10T12:05:08.190Z,68.99
2024-04-10T12:06:07.984Z,69.87
2024-04-10T12:07:07.906Z,68.61
2024-04-10T12:08:10.034Z,68.64
2024-04-10T12:09:08.197Z,67.86
2024-04-10T12:10:08.216Z,64.68
2024-04-10T12:11:08.389Z,67.65
2024-04-10T12:12:08.367Z,63.52
2024-04-10T12:13:08.361Z,61.20
2024-04-10T12:14:11.136Z,61.38
2024-04-10T12:15:08.425Z,61.44
2024-04-10T12:16:08.502Z,61.67
2024-04-10T12:17:08.504Z,61.48
2024-04-10T12:18:08.440Z,61.55
2024-04-10T12:19:08.474Z,61.39
2024-04-10T12:20:10.878Z,61.46
2024-04-10T12:21:08.478Z,61.96
2024-04-10T12:22:08.438Z,62.41
2024-04-10T12:23:08.470Z,63.67
2024-04-10T12:24:08.485Z,67.33
2024-04-10T12:25:08.440Z,69.68
2024-04-10T12:26:09.026Z,70.11
2024-04-10T12:27:08.451Z,73.08
2024-04-10T12:28:08.423Z,76.33
2024-04-10T12:29:08.425Z,78.25
2024-04-10T12:30:08.545Z,80.34
2024-04-10T12:31:08.452Z,83.12
2024-04-10T12:32:09.528Z,85.74
2024-04-10T12:33:08.647Z,87.16
2024-04-10T12:34:08.576Z,88.56
2024-04-10T12:35:08.429Z,87.80
2024-04-10T12:36:08.446Z,87.11
2024-04-10T12:37:08.459Z,85.70
2024-04-10T12:38:10.100Z,82.75
2024-04-10T12:39:08.531Z,83.32
2024-04-10T12:40:08.502Z,84.49
2024-04-10T12:41:08.493Z,84.08